Time;durP1;ratioP1;P1;durP2;ratioP2;P2;SDS_P1;SDS_P2;PMS_P1;PMS_P2;Temp;Humidity;BMP_temperature;BMP_pressure;BME280_temperature;BME280_humidity;BME280_pressure;Samples;Min_cycle;Max_cycle;Signal;HPM_P1;HPM_P2
2022/05/01 00:01:59;;;;;;;6.87;4.53;;;9.80;99.90;;;;;;4885909;29;20214;-77
2022/05/01 00:04:25;;;;;;;6.27;4.73;;;9.80;99.90;;;;;;4901666;29;20222;-77
2022/05/01 00:06:51;;;;;;;6.27;4.67;;;9.80;99.90;;;;;;4918327;29;20204;-77
2022/05/01 00:09:17;;;;;;;5.73;4.70;;;9.80;99.90;;;;;;4901463;29;20203;-77
2022/05/01 00:11:42;;;;;;;5.13;4.50;;;9.80;99.90;;;;;;4917239;29;20170;-77
2022/05/01 00:14:08;;;;;;;6.87;4.60;;;9.80;99.90;;;;;;4885751;29;20205;-77
2022/05/01 00:16:34;;;;;;;5.20;4.40;;;9.70;99.90;;;;;;4918365;29;20174;-77
2022/05/01 00:19:00;;;;;;;6.87;4.90;;;9.70;99.90;;;;;;4901481;29;20260;-77
2022/05/01 00:21:25;;;;;;;5.30;4.60;;;9.60;99.90;;;;;;4916943;29;20279;-77
2022/05/01 00:23:51;;;;;;;5.17;4.33;;;9.60;99.90;;;;;;4884587;29;20213;-77
2022/05/01 00:26:17;;;;;;;5.70;4.40;;;9.60;99.90;;;;;;4885449;29;20693;-77
2022/05/01 00:28:42;;;;;;;6.37;4.70;;;9.60;99.90;;;;;;4916947;29;20209;-77
2022/05/01 00:31:08;;;;;;;9.27;4.70;;;9.70;99.90;;;;;;4918062;29;20174;-77
2022/05/01 00:36:25;;;;;;;7.27;4.47;;;9.70;99.90;;;;;;4890749;29;20253;-77
2022/05/01 00:38:53;;;;;;;5.40;4.13;;;9.70;99.90;;;;;;4886339;29;20183;-77
2022/05/01 00:41:21;;;;;;;6.53;4.53;;;9.70;99.90;;;;;;4901399;29;20653;-77
2022/05/01 00:44:05;;;;;;;5.60;4.30;;;9.70;99.90;;;;;;4885900;29;20220;-77
2022/05/01 00:46:35;;;;;;;6.23;4.60;;;9.80;99.90;;;;;;4900801;29;20184;-77
2022/05/01 00:49:04;;;;;;;6.27;4.30;;;9.80;99.90;;;;;;4900901;29;20210;-77
2022/05/01 00:51:31;;;;;;;6.33;4.50;;;9.80;99.90;;;;;;4901152;29;20190;-77
2022/05/01 00:53:58;;;;;;;6.63;4.57;;;9.80;99.90;;;;;;4884828;29;20711;-77
2022/05/01 00:56:24;;;;;;;8.50;5.13;;;9.60;99.90;;;;;;4900621;29;20210;-77
2022/05/01 00:58:50;;;;;;;7.70;4.70;;;9.70;99.90;;;;;;4917622;29;20208;-77
2022/05/01 01:01:17;;;;;;;6.70;4.60;;;9.70;99.90;;;;;;4900634;29;20188;-77
2022/05/01 01:03:44;;;;;;;6.90;4.47;;;9.70;99.90;;;;;;4884490;29;20214;-77
2022/05/01 01:06:10;;;;;;;6.10;4.67;;;9.80;99.90;;;;;;4885277;29;20192;-77
2022/05/01 01:08:36;;;;;;;5.00;3.87;;;9.80;99.90;;;;;;4900410;29;20310;-77
2022/05/01 01:11:02;;;;;;;4.43;4.00;;;9.80;99.90;;;;;;4900677;29;20261;-77
2022/05/01 01:13:29;;;;;;;5.70;4.70;;;9.80;99.90;;;;;;4900094;29;20212;-77
2022/05/01 01:15:56;;;;;;;5.40;4.60;;;9.70;99.90;;;;;;4900183;29;20201;-77
2022/05/01 01:18:22;;;;;;;7.47;4.40;;;9.60;99.90;;;;;;4884577;29;20281;-77
2022/05/01 01:20:48;;;;;;;4.90;4.33;;;9.60;99.90;;;;;;4900152;29;20269;-77
2022/05/01 01:23:14;;;;;;;5.13;4.23;;;9.50;99.90;;;;;;4899830;29;20294;-77
2022/05/01 01:25:40;;;;;;;5.13;4.63;;;9.60;99.90;;;;;;4900105;29;20564;-77
2022/05/01 01:28:08;;;;;;;7.17;4.70;;;9.50;99.90;;;;;;4899998;29;20301;-77
2022/05/01 01:33:26;;;;;;;8.10;4.23;;;9.50;99.90;;;;;;4874724;29;20250;-77
2022/05/01 01:35:52;;;;;;;5.10;4.60;;;9.40;99.90;;;;;;4915435;29;20178;-77
2022/05/01 01:38:19;;;;;;;5.37;4.67;;;9.30;99.90;;;;;;4899977;29;20182;-77
2022/05/01 01:40:48;;;;;;;7.67;4.50;;;9.30;99.90;;;;;;4900422;29;20672;-77
2022/05/01 01:43:17;;;;;;;6.23;4.33;;;9.40;99.90;;;;;;4899827;29;20654;-77
2022/05/01 01:45:42;;;;;;;6.00;4.57;;;9.40;99.90;;;;;;4900436;29;20559;-77
2022/05/01 01:48:13;;;;;;;6.47;4.83;;;9.40;99.90;;;;;;4899906;29;20684;-77
2022/05/01 01:50:40;;;;;;;6.93;5.00;;;9.40;99.90;;;;;;4884177;29;20197;-77
2022/05/01 01:53:06;;;;;;;6.47;4.23;;;9.40;99.90;;;;;;4899390;29;20238;-77
2022/05/01 01:55:32;;;;;;;5.63;4.67;;;9.40;99.90;;;;;;4899687;29;20170;-77
2022/05/01 01:57:58;;;;;;;4.87;4.37;;;9.40;99.90;;;;;;4884067;29;20228;-77
2022/05/01 02:00:24;;;;;;;6.63;4.77;;;9.40;99.90;;;;;;4916497;29;20555;-77
2022/05/01 02:02:56;;;;;;;7.07;4.80;;;9.50;99.90;;;;;;4899144;29;20182;-77
2022/05/01 02:05:22;;;;;;;6.23;4.33;;;9.40;99.90;;;;;;4917124;29;20668;-77
2022/05/01 02:07:48;;;;;;;7.23;4.50;;;9.40;99.90;;;;;;4883845;29;20206;-77
2022/05/01 02:10:13;;;;;;;5.97;4.63;;;9.40;99.90;;;;;;4899691;29;20179;-77
2022/05/01 02:12:40;;;;;;;7.17;4.40;;;9.40;99.90;;;;;;4899450;29;20216;-77
2022/05/01 03:22:33;;;;;;;6.43;5.20;;;8.70;99.90;;;;;;4905094;29;20201;-74
2022/05/01 03:24:59;;;;;;;6.70;5.40;;;8.60;99.90;;;;;;4871095;29;20744;-74
2022/05/01 03:27:25;;;;;;;7.97;5.23;;;8.50;99.90;;;;;;4902179;29;20264;-74
2022/05/01 03:32:35;;;;;;;7.20;5.50;;;8.30;99.90;;;;;;4893323;23;20268;-74
2022/05/01 03:35:02;;;;;;;6.43;5.20;;;8.40;99.90;;;;;;4868218;29;20187;-74
2022/05/01 03:37:29;;;;;;;6.73;5.93;;;8.40;99.90;;;;;;4883240;29;20182;-74
2022/05/01 03:39:54;;;;;;;7.63;5.07;;;8.30;99.90;;;;;;4867942;29;20213;-74
2022/05/01 03:42:20;;;;;;;8.10;5.30;;;8.30;99.90;;;;;;4882924;29;20202;-74
2022/05/01 03:44:45;;;;;;;6.40;5.30;;;8.40;99.90;;;;;;4883363;29;20195;-74
2022/05/01 03:47:11;;;;;;;7.33;5.50;;;8.50;99.90;;;;;;4867570;29;20190;-74
2022/05/01 03:49:37;;;;;;;7.90;5.60;;;8.40;99.90;;;;;;4883071;29;20211;-74
2022/05/01 03:52:02;;;;;;;7.77;5.23;;;8.10;99.90;;;;;;4882714;29;20281;-74
2022/05/01 03:54:28;;;;;;;6.17;5.30;;;8.20;99.90;;;;;;4867495;29;20189;-74
2022/05/01 03:56:54;;;;;;;8.10;5.17;;;8.20;99.90;;;;;;4883124;29;20208;-75
2022/05/01 03:59:19;;;;;;;5.57;4.70;;;8.20;99.90;;;;;;4867396;29;20202;-75
2022/05/01 04:01:46;;;;;;;5.90;4.60;;;8.20;99.90;;;;;;4882415;29;20220;-75
2022/05/01 04:04:12;;;;;;;5.90;5.30;;;8.20;99.90;;;;;;4867591;29;20280;-74
2022/05/01 04:06:37;;;;;;;6.70;4.70;;;7.90;99.90;;;;;;4882663;29;20295;-74
2022/05/01 04:09:03;;;;;;;5.17;4.63;;;7.80;99.90;;;;;;4867469;29;20214;-74
2022/05/01 04:11:29;;;;;;;7.13;5.40;;;7.60;99.90;;;;;;4882646;29;20196;-74
2022/05/01 04:13:54;;;;;;;7.37;5.30;;;7.60;99.90;;;;;;4882763;29;20181;-74
2022/05/01 04:16:20;;;;;;;6.97;5.30;;;7.60;99.90;;;;;;4867188;29;20195;-74
2022/05/01 04:18:46;;;;;;;7.30;5.27;;;7.50;99.90;;;;;;4867260;29;20194;-74
2022/05/01 04:21:13;;;;;;;5.43;4.77;;;7.50;99.90;;;;;;4867114;29;20209;-74
2022/05/01 04:23:39;;;;;;;6.63;5.30;;;7.40;99.90;;;;;;4882292;29;20296;-74
2022/05/01 04:26:04;;;;;;;7.43;5.50;;;7.40;99.90;;;;;;4882719;29;20264;-74
2022/05/01 04:28:30;;;;;;;5.23;4.73;;;7.30;99.90;;;;;;4866922;29;20222;-74
2022/05/01 04:30:56;;;;;;;7.40;5.23;;;7.20;99.90;;;;;;4882426;29;20267;-74
2022/05/01 04:33:21;;;;;;;5.00;4.50;;;7.20;99.90;;;;;;4882038;29;20228;-74
2022/05/01 04:35:50;;;;;;;6.03;5.37;;;7.20;99.90;;;;;;4882478;29;20177;-74
2022/05/01 04:38:18;;;;;;;8.73;5.53;;;7.20;99.90;;;;;;4899064;29;20171;-74
2022/05/01 04:40:49;;;;;;;7.53;5.67;;;7.00;99.90;;;;;;4866951;29;20270;-74
2022/05/01 04:43:20;;;;;;;8.33;6.03;;;7.00;99.90;;;;;;4898736;29;20694;-74
2022/05/01 04:45:56;;;;;;;8.27;5.77;;;7.00;99.90;;;;;;4898936;29;20211;-74
2022/05/01 04:48:24;;;;;;;9.67;5.90;;;7.10;99.90;;;;;;4882021;29;20217;-74
2022/05/01 04:50:50;;;;;;;9.80;6.23;;;7.00;99.90;;;;;;4882345;29;20266;-75
2022/05/01 04:53:17;;;;;;;6.30;5.53;;;7.00;99.90;;;;;;4897408;29;20270;-75
2022/05/01 04:55:45;;;;;;;8.77;6.10;;;7.10;99.90;;;;;;4882101;29;20179;-75
2022/05/01 04:58:11;;;;;;;7.60;6.43;;;7.20;99.90;;;;;;4881937;29;20193;-75
2022/05/01 05:00:37;;;;;;;7.20;5.83;;;7.20;99.90;;;;;;4881680;29;20180;-76
2022/05/01 05:03:03;;;;;;;10.37;6.53;;;7.20;99.90;;;;;;4881442;29;20209;-75
2022/05/01 05:05:31;;;;;;;7.93;6.50;;;7.40;99.90;;;;;;4866276;29;20187;-75
2022/05/01 05:09:53;;;;;;;7.60;6.50;;;7.50;99.90;;;;;;4882090;29;20202;-75
2022/05/01 05:10:47;;;;;;;9.13;6.23;;;7.50;99.90;;;;;;4897389;29;20229;-76
2022/05/01 05:13:23;;;;;;;7.37;6.10;;;7.70;99.90;;;;;;4881348;29;20559;-76
2022/05/01 05:15:49;;;;;;;8.27;6.07;;;7.70;99.90;;;;;;4881573;29;20202;-76
2022/05/01 05:18:15;;;;;;;7.80;6.13;;;7.80;99.90;;;;;;4881864;29;20182;-76
2022/05/01 05:20:41;;;;;;;7.83;5.90;;;7.90;99.90;;;;;;4881477;29;20183;-75
2022/05/01 05:23:07;;;;;;;8.90;5.93;;;8.00;99.90;;;;;;4881525;29;20203;-75
2022/05/01 05:25:32;;;;;;;6.43;5.57;;;8.10;99.90;;;;;;4865904;29;20580;-76
2022/05/01 05:27:58;;;;;;;8.40;6.40;;;8.20;99.90;;;;;;4881308;29;20202;-75
2022/05/01 05:30:24;;;;;;;9.40;6.73;;;8.20;99.90;;;;;;4881587;29;20191;-75
2022/05/01 05:32:49;;;;;;;7.60;6.37;;;8.30;99.90;;;;;;4865498;29;20307;-75
2022/05/01 05:35:15;;;;;;;8.50;6.33;;;8.40;99.90;;;;;;4881401;29;20180;-75
2022/05/01 05:37:41;;;;;;;9.87;6.70;;;8.40;99.90;;;;;;4881269;29;20249;-75
2022/05/01 05:40:07;;;;;;;7.47;6.37;;;8.40;99.90;;;;;;4881222;29;20184;-75
2022/05/01 05:42:33;;;;;;;8.37;6.73;;;8.40;99.90;;;;;;4896366;29;20193;-75
2022/05/01 05:45:00;;;;;;;10.53;6.90;;;8.40;99.90;;;;;;4865831;29;20205;-75
2022/05/01 05:47:25;;;;;;;8.23;6.50;;;8.40;99.90;;;;;;4880930;29;20180;-75
2022/05/01 05:49:51;;;;;;;8.43;6.63;;;8.40;99.90;;;;;;4881133;29;20188;-75
2022/05/01 05:52:17;;;;;;;7.33;6.43;;;8.50;99.90;;;;;;4897686;29;20230;-75
2022/05/01 05:54:43;;;;;;;9.10;6.77;;;8.40;99.90;;;;;;4880956;29;20184;-75
2022/05/01 05:57:08;;;;;;;8.93;6.73;;;8.40;99.90;;;;;;4880779;29;20209;-75
2022/05/01 05:59:34;;;;;;;8.20;7.00;;;8.50;99.90;;;;;;4865449;29;20180;-75
2022/05/01 06:02:00;;;;;;;9.20;6.77;;;8.50;99.90;;;;;;4880352;29;20200;-75
2022/05/01 06:04:26;;;;;;;9.93;7.00;;;8.60;99.90;;;;;;4880856;29;20247;-76
2022/05/01 06:06:52;;;;;;;11.70;7.63;;;8.60;99.90;;;;;;4880769;29;20268;-75
2022/05/01 06:09:17;;;;;;;8.63;7.63;;;8.80;99.90;;;;;;4880674;29;20289;-76
2022/05/01 06:11:43;;;;;;;9.37;7.90;;;8.80;99.90;;;;;;4880378;29;20256;-76
2022/05/01 06:14:08;;;;;;;10.10;7.87;;;8.80;99.90;;;;;;4865277;29;20181;-76
2022/05/01 06:16:35;;;;;;;11.03;8.20;;;8.90;99.90;;;;;;4865060;29;20236;-76
2022/05/01 06:19:00;;;;;;;10.27;7.90;;;9.00;99.90;;;;;;4865271;29;20193;-76
2022/05/01 06:21:26;;;;;;;17.73;9.27;;;9.00;99.90;;;;;;4880276;29;20795;-75
2022/05/01 06:23:52;;;;;;;20.10;9.63;;;9.20;99.90;;;;;;4879972;29;20198;-75
2022/05/01 06:26:18;;;;;;;12.90;8.20;;;9.70;99.90;;;;;;4880280;29;20564;-76
2022/05/01 06:28:44;;;;;;;8.90;6.63;;;10.20;99.90;;;;;;4865127;29;20210;-75
2022/05/01 06:31:09;;;;;;;12.20;7.90;;;10.40;99.90;;;;;;4864975;29;20669;-74
2022/05/01 06:33:36;;;;;;;11.00;7.50;;;10.50;99.90;;;;;;4880117;29;20233;-76
2022/05/01 06:36:03;;;;;;;12.13;7.13;;;10.60;99.90;;;;;;4880278;29;20614;-75
2022/05/01 06:38:29;;;;;;;10.87;7.90;;;10.50;99.90;;;;;;4880310;29;20227;-74
2022/05/01 06:40:55;;;;;;;10.00;8.03;;;10.50;99.90;;;;;;4880305;29;20181;-75
2022/05/01 06:43:21;;;;;;;11.60;8.27;;;10.50;99.90;;;;;;4880292;29;20714;-79
2022/05/01 06:45:48;;;;;;;11.93;8.40;;;10.40;99.90;;;;;;4880332;29;20277;-75
2022/05/01 06:48:14;;;;;;;9.10;7.57;;;10.20;99.90;;;;;;4880239;29;20603;-75
2022/05/01 06:50:40;;;;;;;10.13;8.10;;;10.10;99.90;;;;;;4880477;29;20179;-75
2022/05/01 06:53:07;;;;;;;11.90;8.23;;;10.10;99.90;;;;;;4896707;29;20566;-75
2022/05/01 06:55:33;;;;;;;11.43;8.17;;;10.00;99.90;;;;;;4880153;29;20600;-75
2022/05/01 06:57:58;;;;;;;11.33;8.27;;;9.90;99.90;;;;;;4864661;29;20661;-75
2022/05/01 07:00:24;;;;;;;9.50;8.03;;;10.00;99.90;;;;;;4897315;29;20208;-76
2022/05/01 07:02:54;;;;;;;10.63;7.70;;;10.00;99.90;;;;;;4879873;29;20199;-75
2022/05/01 07:05:21;;;;;;;10.57;7.97;;;10.20;99.90;;;;;;4880701;29;20218;-76
2022/05/01 07:07:48;;;;;;;8.90;7.10;;;10.30;99.90;;;;;;4878429;29;20183;-75
2022/05/01 07:10:14;;;;;;;10.07;7.90;;;10.40;99.90;;;;;;4882071;29;20178;-75
2022/05/01 07:12:40;;;;;;;10.00;7.90;;;10.40;99.90;;;;;;4895398;29;20206;-75
2022/05/01 07:15:06;;;;;;;8.97;7.60;;;10.50;99.90;;;;;;4887828;29;20313;-76
2022/05/01 07:17:32;;;;;;;9.30;7.63;;;10.50;99.90;;;;;;4864555;29;20175;-75
2022/05/01 07:19:58;;;;;;;10.80;7.37;;;10.50;99.90;;;;;;4864719;29;20243;-75
2022/05/01 07:22:24;;;;;;;9.03;7.10;;;10.60;99.90;;;;;;4879605;29;20246;-75
2022/05/01 07:24:49;;;;;;;14.10;7.63;;;10.60;99.90;;;;;;4879891;29;20213;-75
2022/05/01 07:27:15;;;;;;;8.13;6.80;;;10.50;99.90;;;;;;4884759;29;20180;-75
2022/05/01 07:29:41;;;;;;;9.33;7.40;;;10.40;99.90;;;;;;4876573;29;20230;-75
2022/05/01 07:32:07;;;;;;;9.57;6.77;;;10.40;99.90;;;;;;4860965;29;20246;-75
2022/05/01 07:34:33;;;;;;;9.27;7.23;;;10.40;99.90;;;;;;4863460;29;20180;-75
2022/05/01 07:36:59;;;;;;;12.63;7.30;;;10.60;99.90;;;;;;4864850;29;20231;-75
2022/05/01 07:39:24;;;;;;;9.07;7.43;;;10.70;99.90;;;;;;4849538;29;20341;-75
2022/05/01 07:41:50;;;;;;;10.23;7.07;;;10.90;99.90;;;;;;4849269;29;20753;-75
2022/05/01 07:44:15;;;;;;;9.03;6.50;;;11.00;99.90;;;;;;4849396;29;20191;-75
2022/05/01 07:46:43;;;;;;;7.70;6.43;;;11.00;99.90;;;;;;4881351;29;20180;-75
2022/05/01 07:49:11;;;;;;;10.90;7.40;;;11.20;99.90;;;;;;4864343;29;20241;-75
2022/05/01 07:51:37;;;;;;;9.20;6.60;;;11.20;99.90;;;;;;4880151;29;20183;-81
2022/05/01 07:54:04;;;;;;;7.57;6.77;;;11.30;99.90;;;;;;4880549;29;20219;-75
2022/05/01 07:56:31;;;;;;;8.30;6.73;;;11.40;99.90;;;;;;4880943;29;20545;-75
2022/05/01 07:58:57;;;;;;;9.20;6.77;;;11.50;99.90;;;;;;4864623;29;20215;-76
2022/05/01 08:01:23;;;;;;;8.90;7.03;;;11.50;99.90;;;;;;4864329;29;20291;-75
2022/05/01 08:06:35;;;;;;;9.90;6.70;;;11.40;99.90;;;;;;4867094;29;20191;-75
2022/05/01 08:09:01;;;;;;;8.03;6.23;;;11.60;99.90;;;;;;4880855;29;20722;-75
2022/05/01 08:11:27;;;;;;;8.40;6.40;;;11.70;99.90;;;;;;4863945;29;20834;-75
2022/05/01 08:13:53;;;;;;;7.70;6.70;;;11.80;99.90;;;;;;4880942;29;20180;-75
2022/05/01 08:16:20;;;;;;;8.37;6.53;;;12.00;99.90;;;;;;4863991;29;20184;-75
2022/05/01 08:21:32;;;;;;;7.20;6.30;;;12.30;99.90;;;;;;4866809;29;20191;-76
2022/05/01 08:23:59;;;;;;;8.43;6.10;;;12.30;99.90;;;;;;4864131;29;20191;-75
2022/05/01 08:26:24;;;;;;;7.83;5.87;;;12.30;99.90;;;;;;4880585;29;20172;-75
2022/05/01 08:28:54;;;;;;;8.63;6.67;;;12.50;99.90;;;;;;4863956;29;20211;-76
2022/05/01 08:31:21;;;;;;;9.90;6.33;;;12.50;99.90;;;;;;4863856;29;20180;-75
2022/05/01 08:33:47;;;;;;;8.53;6.40;;;12.70;99.90;;;;;;4863479;29;20219;-76
2022/05/01 08:36:13;;;;;;;9.50;6.30;;;12.80;99.90;;;;;;4863893;29;20179;-76
2022/05/01 08:38:39;;;;;;;7.30;5.97;;;12.90;99.90;;;;;;4879107;29;20243;-75
2022/05/01 08:41:07;;;;;;;7.20;5.97;;;12.90;99.90;;;;;;4879163;29;20184;-75
2022/05/01 08:43:34;;;;;;;9.70;6.77;;;13.00;99.90;;;;;;4878766;29;20255;-75
2022/05/01 08:46:36;;;;;;;7.77;6.10;;;13.00;99.90;;;;;;4862860;29;20575;-75
2022/05/01 08:49:09;;;;;;;7.73;6.00;;;12.90;99.90;;;;;;4878874;29;20733;-75
2022/05/01 08:51:40;;;;;;;7.33;6.10;;;13.00;99.90;;;;;;4863958;29;20236;-75
2022/05/01 08:54:08;;;;;;;10.07;5.77;;;13.10;99.90;;;;;;4878606;29;20180;-75
2022/05/01 08:56:35;;;;;;;9.10;5.73;;;13.20;99.90;;;;;;4878819;29;20176;-75
2022/05/01 08:59:05;;;;;;;8.53;5.90;;;13.30;99.90;;;;;;4863249;29;20556;-75
2022/05/01 09:01:33;;;;;;;7.90;6.33;;;13.40;99.90;;;;;;4848102;29;20187;-76
2022/05/01 09:03:59;;;;;;;8.93;6.00;;;13.60;99.90;;;;;;4856837;29;20188;-76
2022/05/01 09:06:25;;;;;;;8.70;5.97;;;13.60;99.90;;;;;;4894253;29;20210;-75
2022/05/01 09:08:51;;;;;;;8.93;6.23;;;13.70;99.90;;;;;;4894043;29;20259;-75
2022/05/01 09:14:03;;;;;;;8.17;6.33;;;14.30;99.90;;;;;;4878963;29;20217;-75
2022/05/01 09:16:28;;;;;;;9.80;5.77;;;14.60;99.90;;;;;;4899633;29;20187;-75
2022/05/01 09:18:54;;;;;;;8.57;6.00;;;14.70;99.90;;;;;;4897304;29;20270;-75
2022/05/01 09:21:19;;;;;;;8.90;5.80;;;14.80;99.90;;;;;;4896993;29;20184;-75
2022/05/01 09:23:47;;;;;;;6.83;5.57;;;14.90;99.90;;;;;;4881402;29;20206;-75
2022/05/01 09:26:20;;;;;;;10.20;5.90;;;15.00;99.90;;;;;;4866229;29;20179;-75
2022/05/01 09:28:54;;;;;;;7.17;5.57;;;15.30;99.90;;;;;;4896893;29;20232;-75
2022/05/01 09:31:50;;;;;;;7.33;5.80;;;15.40;99.90;;;;;;4896949;29;20183;-76
2022/05/01 09:34:24;;;;;;;6.70;5.73;;;15.50;99.90;;;;;;4923819;23;20234;-76
2022/05/01 09:36:51;;;;;;;7.40;5.80;;;15.60;99.90;;;;;;4900065;29;20178;-76
2022/05/01 09:39:22;;;;;;;6.87;6.17;;;15.80;99.90;;;;;;4884494;29;20301;-76
2022/05/01 09:41:49;;;;;;;7.07;5.73;;;15.90;99.90;;;;;;4899717;29;20661;-76
2022/05/01 09:44:16;;;;;;;7.43;5.77;;;16.00;99.90;;;;;;4867137;29;20206;-76
2022/05/01 09:46:47;;;;;;;9.53;6.10;;;16.10;99.90;;;;;;4865588;29;20187;-76
2022/05/01 09:49:14;;;;;;;6.73;5.50;;;15.90;99.90;;;;;;4897772;29;20203;-75
2022/05/01 09:52:00;;;;;;;7.20;5.70;;;16.20;99.90;;;;;;4897806;29;20717;-76
2022/05/01 09:54:27;;;;;;;7.30;5.37;;;16.50;99.90;;;;;;4864925;29;20294;-75
2022/05/01 09:57:00;;;;;;;8.37;5.73;;;16.90;99.90;;;;;;4865340;29;20194;-76
2022/05/01 09:59:28;;;;;;;6.83;5.73;;;17.20;99.90;;;;;;4881071;29;20721;-76
2022/05/01 10:01:57;;;;;;;8.20;5.47;;;17.60;99.90;;;;;;4865453;29;20745;-76
2022/05/01 10:04:24;;;;;;;6.60;5.13;;;17.40;99.90;;;;;;4896382;29;20203;-76
2022/05/01 10:06:55;;;;;;;8.93;5.23;;;17.50;99.90;;;;;;4880976;29;20203;-77
2022/05/01 10:09:24;;;;;;;8.63;5.70;;;17.40;99.90;;;;;;4880448;29;20214;-76
2022/05/01 10:11:53;;;;;;;8.13;6.00;;;17.40;99.90;;;;;;4850036;29;20270;-76
2022/05/01 10:14:22;;;;;;;6.77;5.27;;;17.20;99.90;;;;;;4865329;29;20230;-75
2022/05/01 10:16:49;;;;;;;6.27;5.40;;;17.10;99.90;;;;;;4880725;29;20638;-76
2022/05/01 10:19:17;;;;;;;5.97;4.97;;;17.00;99.90;;;;;;4896090;29;20572;-76
2022/05/01 10:21:49;;;;;;;7.00;5.93;;;17.10;99.90;;;;;;4895867;29;20183;-75
2022/05/01 10:24:19;;;;;;;6.13;5.53;;;17.20;99.90;;;;;;4864890;29;20302;-77
2022/05/01 10:27:04;;;;;;;7.77;5.57;;;17.30;99.90;;;;;;4897410;29;20214;-76
2022/05/01 10:33:15;;;;;;;7.63;5.67;;;17.80;99.90;;;;;;4896977;29;20225;-76
2022/05/01 10:36:02;;;;;;;8.77;6.00;;;17.80;99.90;;;;;;4895931;29;20189;-75
2022/05/01 10:38:42;;;;;;;7.07;6.37;;;18.00;99.90;;;;;;4880435;29;20179;-73
2022/05/01 10:41:10;;;;;;;7.20;5.97;;;18.40;99.90;;;;;;4896178;29;20179;-77
2022/05/01 10:43:37;;;;;;;7.40;6.50;;;18.60;99.90;;;;;;4864996;29;20202;-77
2022/05/01 10:46:21;;;;;;;6.80;5.87;;;18.60;99.90;;;;;;4895923;29;20566;-76
2022/05/01 10:48:48;;;;;;;6.03;5.43;;;18.80;99.90;;;;;;4896730;29;20214;-76
2022/05/01 10:51:34;;;;;;;7.60;5.47;;;18.80;99.90;;;;;;4880350;29;20209;-76
2022/05/01 10:54:18;;;;;;;6.70;5.07;;;19.00;99.90;;;;;;4895561;29;20583;-76
2022/05/01 10:56:51;;;;;;;5.87;5.10;;;19.00;99.90;;;;;;4895819;29;20215;-76
2022/05/01 10:59:29;;;;;;;5.50;5.00;;;19.00;99.90;;;;;;4864941;29;20206;-77
2022/05/01 11:02:00;;;;;;;7.70;5.80;;;19.00;99.90;;;;;;4895517;29;20238;-77
2022/05/01 11:04:29;;;;;;;6.90;5.50;;;18.90;99.90;;;;;;4865208;29;20206;-77
2022/05/01 11:06:57;;;;;;;7.90;6.13;;;19.00;99.90;;;;;;4864891;29;20198;-77
2022/05/01 11:09:24;;;;;;;10.33;6.10;;;19.10;99.90;;;;;;4897893;29;20218;-77
2022/05/01 11:12:00;;;;;;;8.37;6.53;;;19.10;99.90;;;;;;4868051;29;20187;-77
2022/05/01 11:14:33;;;;;;;7.90;6.60;;;19.30;99.90;;;;;;4868352;29;20241;-77
2022/05/01 11:16:59;;;;;;;8.37;6.27;;;19.60;99.90;;;;;;4868388;29;20191;-77
2022/05/01 11:19:30;;;;;;;7.13;6.40;;;19.80;99.90;;;;;;4883648;29;20394;-77
2022/05/01 11:21:55;;;;;;;7.37;6.67;;;19.90;99.90;;;;;;4883506;29;20179;-77
2022/05/01 11:24:40;;;;;;;8.17;6.33;;;19.60;99.90;;;;;;4883667;29;20673;-77
2022/05/01 11:27:17;;;;;;;8.00;6.67;;;18.90;99.90;;;;;;4868188;29;20187;-77
2022/05/01 11:30:07;;;;;;;7.90;6.47;;;18.60;99.90;;;;;;4883605;29;20217;-77
2022/05/01 11:32:44;;;;;;;7.63;5.50;;;18.30;99.90;;;;;;4898664;29;20224;-77
2022/05/01 11:35:11;;;;;;;9.80;6.90;;;18.50;99.90;;;;;;4867248;29;20187;-77
2022/05/01 11:37:58;;;;;;;6.57;5.67;;;18.90;99.90;;;;;;4864299;29;20191;-77
2022/05/01 11:40:26;;;;;;;7.70;6.10;;;19.30;99.90;;;;;;4910319;29;20227;-77
2022/05/01 11:43:02;;;;;;;9.17;6.97;;;19.30;99.90;;;;;;4882879;29;20701;-77
2022/05/01 11:45:31;;;;;;;10.77;7.03;;;19.30;99.90;;;;;;4899171;29;20190;-77
2022/05/01 11:47:58;;;;;;;7.67;6.60;;;19.50;99.90;;;;;;4867986;29;20225;-77
2022/05/01 11:50:24;;;;;;;7.77;6.90;;;19.50;99.90;;;;;;4860691;29;20183;-77
2022/05/01 11:52:52;;;;;;;8.97;6.87;;;19.50;99.90;;;;;;4860353;29;20207;-77
2022/05/01 11:55:19;;;;;;;8.20;6.80;;;19.30;99.90;;;;;;4866081;29;20559;-77
2022/05/01 12:03:29;;;;;;;7.20;6.23;;;18.90;99.90;;;;;;4885739;29;20209;-76
2022/05/01 12:05:55;;;;;;;8.07;6.17;;;18.70;99.90;;;;;;4899889;29;20175;-77
2022/05/01 12:08:22;;;;;;;7.47;5.27;;;18.70;99.90;;;;;;4883106;29;20298;-77
2022/05/01 12:10:48;;;;;;;7.37;5.57;;;19.30;99.90;;;;;;4883336;29;20182;-77
2022/05/01 12:13:19;;;;;;;8.40;5.43;;;20.10;99.90;;;;;;4878210;29;20199;-77
2022/05/01 12:15:45;;;;;;;6.60;5.90;;;20.60;99.90;;;;;;4879910;29;20182;-77
2022/05/01 12:18:10;;;;;;;7.57;5.40;;;20.70;99.90;;;;;;4849045;29;20187;-77
2022/05/01 12:20:36;;;;;;;6.18;5.63;;;21.00;99.90;;;;;;4863146;29;20271;-77
2022/05/01 12:23:02;;;;;;;6.88;5.50;;;20.90;99.90;;;;;;4848797;29;20210;-77
2022/05/01 12:25:27;;;;;;;6.68;5.30;;;20.80;99.90;;;;;;4848767;29;20195;-77
2022/05/01 12:27:53;;;;;;;7.22;5.25;;;20.30;99.90;;;;;;4848857;29;20191;-77
2022/05/01 12:30:25;;;;;;;7.50;5.70;;;19.90;99.90;;;;;;4848815;29;20188;-77
2022/05/01 12:32:54;;;;;;;6.60;5.70;;;19.30;99.90;;;;;;4849080;29;20592;-77
2022/05/01 12:35:20;;;;;;;8.40;5.63;;;19.20;99.90;;;;;;4848650;29;20218;-76
2022/05/01 12:37:48;;;;;;;7.70;5.80;;;19.00;99.90;;;;;;4833820;29;20212;-76
2022/05/01 12:40:14;;;;;;;5.60;5.10;;;18.70;99.90;;;;;;4848958;29;20643;-76
2022/05/01 12:45:39;;;;;;;6.77;5.30;;;18.50;99.90;;;;;;4867529;29;20253;-76
2022/05/01 12:48:07;;;;;;;7.20;6.00;;;18.50;99.90;;;;;;4864108;29;20223;-76
2022/05/01 12:50:35;;;;;;;6.77;5.43;;;18.60;99.90;;;;;;4864214;29;20604;-76
2022/05/01 12:53:02;;;;;;;5.57;5.00;;;18.50;99.90;;;;;;4863688;29;20291;-76
2022/05/01 12:55:35;;;;;;;6.77;6.03;;;18.40;99.90;;;;;;4864329;29;20235;-76
2022/05/01 12:58:06;;;;;;;5.93;5.43;;;18.40;99.90;;;;;;4848487;29;20179;-76
2022/05/01 13:00:49;;;;;;;6.37;5.47;;;18.50;99.90;;;;;;4848670;29;20195;-76
2022/05/01 13:03:15;;;;;;;6.57;5.60;;;18.50;99.90;;;;;;4833313;29;20211;-76
2022/05/01 13:05:43;;;;;;;7.43;5.20;;;18.50;99.90;;;;;;4879127;29;20179;-76
2022/05/01 13:08:19;;;;;;;7.13;5.27;;;18.50;99.90;;;;;;4848263;29;20207;-76
2022/05/01 13:11:30;;;;;;;5.30;4.80;;;18.60;99.90;;;;;;4863491;29;20579;-76
2022/05/01 13:14:00;;;;;;;6.53;5.20;;;18.60;99.90;;;;;;4879337;29;20191;-78
2022/05/01 13:16:39;;;;;;;7.17;5.20;;;18.50;99.90;;;;;;4865623;29;20172;-78
2022/05/01 13:19:19;;;;;;;6.67;5.57;;;18.50;99.90;;;;;;4880365;29;20279;-78
2022/05/01 13:21:54;;;;;;;5.93;4.63;;;18.70;99.90;;;;;;4864697;29;20246;-78
2022/05/01 13:24:31;;;;;;;6.63;5.30;;;18.60;99.90;;;;;;4834912;29;20682;-78
2022/05/01 13:27:02;;;;;;;6.47;5.03;;;18.80;99.90;;;;;;4850713;29;20183;-78
2022/05/01 13:29:31;;;;;;;7.93;5.00;;;18.80;99.90;;;;;;4850384;29;20701;-78
2022/05/01 13:31:58;;;;;;;8.87;5.27;;;19.10;99.90;;;;;;4864576;29;20263;-78
2022/05/01 13:34:25;;;;;;;7.10;5.50;;;19.00;99.90;;;;;;4849857;29;20671;-78
2022/05/01 13:36:51;;;;;;;5.57;5.00;;;19.00;99.90;;;;;;4850064;29;20187;-78
2022/05/01 13:39:17;;;;;;;6.53;5.57;;;19.60;99.90;;;;;;4834893;29;20183;-78
2022/05/01 13:44:45;;;;;;;6.63;5.47;;;19.80;99.90;;;;;;4867425;29;20239;-78
2022/05/01 13:47:12;;;;;;;5.80;4.93;;;19.50;99.90;;;;;;4839117;29;20204;-78
2022/05/01 13:49:40;;;;;;;8.10;5.23;;;19.10;99.90;;;;;;4849306;29;20686;-78
2022/05/01 13:52:06;;;;;;;8.47;5.40;;;18.90;99.90;;;;;;4864324;29;20203;-78
2022/05/01 13:54:32;;;;;;;6.03;5.30;;;18.60;99.90;;;;;;4864274;29;20595;-78
2022/05/01 13:56:58;;;;;;;6.13;5.17;;;18.20;99.90;;;;;;4864319;29;20319;-78
2022/05/01 13:59:24;;;;;;;7.43;5.87;;;18.00;99.90;;;;;;4864861;29;20189;-78
2022/05/01 14:01:52;;;;;;;6.13;5.13;;;17.80;99.90;;;;;;4833795;29;20194;-78
2022/05/01 14:04:19;;;;;;;6.87;5.77;;;17.80;99.90;;;;;;4850284;29;20208;-78
2022/05/01 14:06:44;;;;;;;5.70;5.07;;;17.80;99.90;;;;;;4864089;29;20235;-78
2022/05/01 14:09:11;;;;;;;6.47;4.60;;;17.90;99.90;;;;;;4864885;29;20207;-78
2022/05/01 14:11:38;;;;;;;6.03;5.40;;;18.00;99.90;;;;;;4881595;29;20204;-78
2022/05/01 14:14:04;;;;;;;8.03;5.50;;;18.00;99.90;;;;;;4834028;29;20747;-78
2022/05/01 14:16:29;;;;;;;7.33;5.27;;;18.00;99.90;;;;;;4848908;29;20196;-78
2022/05/01 14:18:57;;;;;;;6.43;5.67;;;18.10;99.90;;;;;;4849413;29;20596;-78
2022/05/01 14:21:24;;;;;;;6.03;5.30;;;18.00;99.90;;;;;;4864380;29;20231;-78
2022/05/01 14:23:51;;;;;;;5.83;5.33;;;17.90;99.90;;;;;;4849179;29;20207;-78
2022/05/01 14:26:17;;;;;;;6.03;5.43;;;17.80;99.90;;;;;;4864397;29;20190;-78
2022/05/01 14:28:43;;;;;;;6.67;5.57;;;17.80;99.90;;;;;;4848165;29;20576;-78
2022/05/01 14:31:37;;;;;;;6.87;5.57;;;17.80;99.90;;;;;;4848727;29;20195;-78
2022/05/01 14:34:16;;;;;;;8.30;5.10;;;17.80;99.90;;;;;;4864950;29;20223;-78
2022/05/01 14:36:47;;;;;;;5.90;5.30;;;17.80;99.90;;;;;;4863935;29;20172;-78